createdAt,value
2019-05-26T00:00:31.325Z,20.69
2019-05-26T00:01:35.793Z,20.66
2019-05-26T00:02:40.597Z,20.65
2019-05-26T00:03:45.009Z,20.67
2019-05-26T00:04:50.034Z,20.65
2019-05-26T00:05:54.506Z,20.65
2019-05-26T00:06:59.073Z,20.64
2019-05-26T00:08:04.445Z,20.64
2019-05-26T00:09:09.001Z,20.64
2019-05-26T00:10:13.762Z,20.63
2019-05-26T00:11:18.382Z,20.57
2019-05-26T00:12:22.754Z,20.55
2019-05-26T00:13:27.407Z,20.50
2019-05-26T00:14:31.939Z,20.44
2019-05-26T00:15:37.911Z,20.41
2019-05-26T00:16:42.341Z,20.40
2019-05-26T00:17:48.093Z,20.35
2019-05-26T00:18:52.582Z,20.35
2019-05-26T00:19:57.192Z,20.27
2019-05-26T00:21:01.610Z,20.19
2019-05-26T00:22:06.242Z,20.10
2019-05-26T00:23:10.618Z,20.07
2019-05-26T00:24:15.237Z,19.97
2019-05-26T00:25:19.733Z,19.98
2019-05-26T00:26:24.465Z,19.96
2019-05-26T00:27:28.910Z,19.99
2019-05-26T00:28:33.473Z,19.98
2019-05-26T00:29:37.940Z,19.95
2019-05-26T00:30:42.661Z,19.93
2019-05-26T00:31:47.309Z,19.94
2019-05-26T00:32:52.009Z,19.95
2019-05-26T00:33:56.523Z,19.96
2019-05-26T00:35:01.207Z,19.96
2019-05-26T00:36:05.779Z,19.92
2019-05-26T00:37:10.325Z,19.91
2019-05-26T00:38:14.845Z,19.88
2019-05-26T00:39:19.502Z,19.87
2019-05-26T00:40:23.950Z,19.82
2019-05-26T00:41:28.566Z,19.81
2019-05-26T00:42:33.100Z,19.80
2019-05-26T00:43:38.714Z,19.79
2019-05-26T00:44:43.117Z,19.77
2019-05-26T00:45:48.053Z,19.77
2019-05-26T00:46:52.454Z,19.77
2019-05-26T00:47:57.010Z,19.76
2019-05-26T00:49:01.585Z,19.75
2019-05-26T00:50:07.784Z,19.73
2019-05-26T00:51:12.297Z,19.69
2019-05-26T00:52:16.891Z,19.67
2019-05-26T00:53:21.423Z,19.67
2019-05-26T00:54:26.072Z,19.67
2019-05-26T00:55:30.448Z,19.65
2019-05-26T00:56:35.024Z,19.64
2019-05-26T00:57:39.513Z,19.64
2019-05-26T00:58:44.069Z,19.65
2019-05-26T00:59:48.454Z,19.56
2019-05-26T01:00:53.013Z,19.56
2019-05-26T01:01:57.481Z,19.55
2019-05-26T01:03:02.117Z,19.53
2019-05-26T01:04:06.490Z,19.46
2019-05-26T01:05:11.187Z,19.48
2019-05-26T01:06:15.590Z,19.49
2019-05-26T01:07:20.259Z,19.49
2019-05-26T01:08:24.893Z,19.48
2019-05-26T01:09:29.484Z,19.48
2019-05-26T01:10:33.972Z,19.42
2019-05-26T01:11:38.875Z,19.37
2019-05-26T01:12:43.490Z,19.36
2019-05-26T01:13:48.201Z,19.36
2019-05-26T01:14:52.569Z,19.33
2019-05-26T01:15:57.137Z,19.32
2019-05-26T01:17:01.607Z,19.32
2019-05-26T01:18:06.603Z,19.32
2019-05-26T01:19:11.156Z,19.31
2019-05-26T01:20:15.795Z,19.23
2019-05-26T01:21:20.376Z,19.22
2019-05-26T01:22:25.003Z,19.16
2019-05-26T01:23:29.409Z,19.09
2019-05-26T01:24:34.175Z,19.06
2019-05-26T01:25:38.562Z,19.01
2019-05-26T01:26:43.125Z,19.03
2019-05-26T01:27:47.637Z,19.03
2019-05-26T01:28:52.205Z,19.04
2019-05-26T01:29:56.682Z,19.04
2019-05-26T01:31:01.311Z,18.99
2019-05-26T01:32:05.836Z,19.02
2019-05-26T01:33:10.394Z,19.04
2019-05-26T01:34:14.812Z,19.06
2019-05-26T01:35:19.340Z,19.06
2019-05-26T01:36:23.884Z,19.04
2019-05-26T01:37:28.609Z,19.04
2019-05-26T01:38:33.244Z,19.03
2019-05-26T01:39:37.806Z,19.02
2019-05-26T01:40:45.095Z,19.00
2019-05-26T01:41:49.866Z,18.94
2019-05-26T01:42:54.394Z,18.93
2019-05-26T01:43:58.957Z,18.93
2019-05-26T01:45:04.001Z,18.94
2019-05-26T01:46:08.557Z,18.94
2019-05-26T01:47:12.932Z,18.91
2019-05-26T01:48:17.634Z,18.88
2019-05-26T01:49:22.012Z,18.89
2019-05-26T01:50:26.569Z,18.88
2019-05-26T01:51:31.162Z,18.83
2019-05-26T01:52:35.723Z,18.83
2019-05-26T01:53:40.213Z,18.78
2019-05-26T01:54:44.810Z,18.76
2019-05-26T01:55:49.194Z,18.71
2019-05-26T01:56:53.822Z,18.74
2019-05-26T01:57:58.202Z,18.72
2019-05-26T01:59:03.166Z,18.72
2019-05-26T02:00:07.610Z,18.72
2019-05-26T02:01:12.537Z,18.75
2019-05-26T02:02:16.986Z,18.76
2019-05-26T02:03:21.544Z,18.77
2019-05-26T02:04:26.042Z,18.78
2019-05-26T02:05:30.602Z,18.74
2019-05-26T02:06:34.978Z,18.75
2019-05-26T02:07:39.681Z,18.74
2019-05-26T02:08:44.058Z,18.75
2019-05-26T02:09:48.795Z,18.69
2019-05-26T02:10:53.389Z,18.67
2019-05-26T02:11:58.267Z,18.67
2019-05-26T02:13:02.634Z,18.69
2019-05-26T02:14:07.194Z,18.61
2019-05-26T02:15:11.572Z,18.58
2019-05-26T02:16:16.102Z,18.51
2019-05-26T02:17:20.525Z,18.52
2019-05-26T02:18:25.101Z,18.51
2019-05-26T02:19:29.478Z,18.46
2019-05-26T02:20:34.216Z,18.46
2019-05-26T02:21:38.606Z,18.49
2019-05-26T02:22:43.275Z,18.46
2019-05-26T02:23:47.658Z,18.42
2019-05-26T02:24:52.227Z,18.41
2019-05-26T02:25:56.666Z,18.42
2019-05-26T02:27:01.298Z,18.42
2019-05-26T02:28:05.875Z,18.41
2019-05-26T02:29:11.545Z,18.42
2019-05-26T02:30:15.939Z,18.39
2019-05-26T02:31:20.849Z,18.37
2019-05-26T02:32:25.223Z,18.34
2019-05-26T02:33:29.810Z,18.28
2019-05-26T02:34:34.331Z,18.28
2019-05-26T02:35:38.958Z,18.33
2019-05-26T02:36:43.359Z,18.29
2019-05-26T02:37:48.040Z,18.32
2019-05-26T02:39:02.145Z,18.31
2019-05-26T02:39:58.836Z,18.33
2019-05-26T02:41:03.477Z,18.32
2019-05-26T02:42:08.026Z,18.28
2019-05-26T02:43:13.625Z,18.22
2019-05-26T02:44:18.211Z,18.22
2019-05-26T02:45:22.689Z,18.24
2019-05-26T02:46:27.253Z,18.19
2019-05-26T02:47:31.673Z,18.16
2019-05-26T02:48:36.294Z,18.13
2019-05-26T02:49:40.690Z,18.16
2019-05-26T02:50:46.443Z,18.18
2019-05-26T02:51:50.817Z,18.17
2019-05-26T02:52:55.541Z,18.16
2019-05-26T02:53:59.918Z,18.18
2019-05-26T02:55:06.117Z,18.20
2019-05-26T02:56:10.591Z,18.21
2019-05-26T02:57:15.360Z,18.20
2019-05-26T02:58:20.870Z,18.19
2019-05-26T02:59:25.545Z,18.13
2019-05-26T03:00:42.811Z,18.18
2019-05-26T03:02:02.577Z,18.17
2019-05-26T03:02:53.569Z,18.17
2019-05-26T03:03:58.169Z,18.15
2019-05-26T03:05:02.697Z,18.13
2019-05-26T03:06:08.357Z,18.13
2019-05-26T03:07:12.708Z,18.13
2019-05-26T03:08:17.431Z,18.13
2019-05-26T03:09:23.778Z,18.12
2019-05-26T03:10:28.632Z,18.11
2019-05-26T03:11:33.053Z,18.09
2019-05-26T03:12:39.815Z,18.06
2019-05-26T03:13:44.314Z,18.04
2019-05-26T03:14:49.000Z,17.98
2019-05-26T03:15:53.357Z,17.91
2019-05-26T03:16:58.572Z,17.90
2019-05-26T03:18:06.493Z,17.88
2019-05-26T03:19:11.044Z,17.77
2019-05-26T03:20:15.614Z,17.79
2019-05-26T03:21:20.849Z,17.77
2019-05-26T03:22:25.324Z,17.79
2019-05-26T03:23:31.698Z,17.80
2019-05-26T03:24:36.168Z,17.82
2019-05-26T03:25:40.821Z,17.82
2019-05-26T03:26:45.220Z,17.86
2019-05-26T03:27:49.847Z,17.86
2019-05-26T03:28:54.286Z,17.88
2019-05-26T03:29:58.865Z,17.90
2019-05-26T03:31:03.369Z,17.91
2019-05-26T03:32:08.036Z,17.92
2019-05-26T03:33:12.562Z,17.93
2019-05-26T03:34:17.425Z,17.93
2019-05-26T03:35:21.793Z,17.94
2019-05-26T03:36:26.422Z,17.96
2019-05-26T03:37:30.871Z,17.96
2019-05-26T03:38:35.612Z,17.96
2019-05-26T03:39:45.159Z,17.95
2019-05-26T03:40:46.458Z,17.92
2019-05-26T03:41:50.889Z,17.90
2019-05-26T03:42:56.524Z,17.90
2019-05-26T03:44:00.990Z,17.89
2019-05-26T03:45:07.092Z,17.86
2019-05-26T03:46:14.768Z,17.86
2019-05-26T03:47:20.115Z,17.85
2019-05-26T03:48:24.541Z,17.84
2019-05-26T03:49:29.139Z,17.83
2019-05-26T03:50:33.701Z,17.82
2019-05-26T03:51:38.585Z,17.81
2019-05-26T03:52:42.962Z,17.81
2019-05-26T03:53:47.639Z,17.81
2019-05-26T03:54:51.973Z,17.80
2019-05-26T03:55:56.562Z,17.80
2019-05-26T03:57:01.025Z,17.79
2019-05-26T03:58:05.658Z,17.76
2019-05-26T03:59:10.025Z,17.76
2019-05-26T04:00:14.870Z,17.75
2019-05-26T04:01:19.253Z,17.76
2019-05-26T04:02:23.885Z,17.73
2019-05-26T04:03:28.263Z,17.67
2019-05-26T04:04:32.813Z,17.65
2019-05-26T04:05:37.200Z,17.64
2019-05-26T04:06:41.991Z,17.64
2019-05-26T04:07:46.448Z,17.66
2019-05-26T04:08:51.097Z,17.67
2019-05-26T04:10:04.910Z,17.67
2019-05-26T04:11:01.921Z,17.65
2019-05-26T04:12:06.324Z,17.67
2019-05-26T04:13:10.889Z,17.69
2019-05-26T04:14:15.272Z,17.68
2019-05-26T04:15:19.838Z,17.70
2019-05-26T04:16:24.210Z,17.67
2019-05-26T04:17:30.258Z,17.65
2019-05-26T04:18:34.645Z,17.64
2019-05-26T04:19:39.196Z,17.66
2019-05-26T04:20:46.004Z,17.67
2019-05-26T04:21:49.841Z,17.68
2019-05-26T04:22:54.261Z,17.68
2019-05-26T04:23:58.809Z,17.68
2019-05-26T04:25:04.662Z,17.68
2019-05-26T04:26:09.223Z,17.69
2019-05-26T04:27:13.610Z,17.69
2019-05-26T04:28:18.365Z,17.69
2019-05-26T04:29:22.790Z,17.69
2019-05-26T04:30:28.421Z,17.70
2019-05-26T04:31:32.798Z,17.72
2019-05-26T04:32:37.367Z,17.73
2019-05-26T04:33:41.733Z,17.74
2019-05-26T04:34:46.356Z,17.76
2019-05-26T04:35:50.725Z,17.74
2019-05-26T04:36:55.308Z,17.76
2019-05-26T04:37:59.682Z,17.75
2019-05-26T04:39:06.981Z,17.76
2019-05-26T04:40:25.555Z,17.77
2019-05-26T04:41:17.802Z,17.77
2019-05-26T04:42:22.180Z,17.76
2019-05-26T04:43:26.753Z,17.76
2019-05-26T04:44:31.114Z,17.78
2019-05-26T04:45:35.839Z,17.80
2019-05-26T04:46:40.236Z,17.80
2019-05-26T04:47:45.876Z,17.82
2019-05-26T04:48:51.226Z,17.82
2019-05-26T04:49:55.791Z,17.82
2019-05-26T04:51:00.250Z,17.79
2019-05-26T04:52:05.533Z,17.81
2019-05-26T04:53:10.878Z,17.84
2019-05-26T04:54:15.439Z,17.87
2019-05-26T04:55:19.821Z,17.89
2019-05-26T04:56:25.418Z,17.90
2019-05-26T04:57:30.296Z,17.86
2019-05-26T04:58:34.864Z,17.88
2019-05-26T04:59:40.215Z,17.89
2019-05-26T05:00:44.858Z,17.83
2019-05-26T05:01:49.238Z,17.78
2019-05-26T05:02:53.874Z,17.80
2019-05-26T05:03:58.251Z,17.82
2019-05-26T05:05:03.033Z,17.83
2019-05-26T05:06:07.421Z,17.80
2019-05-26T05:07:11.987Z,17.82
2019-05-26T05:08:16.446Z,17.82
2019-05-26T05:09:21.006Z,17.81
2019-05-26T05:10:39.434Z,17.78
2019-05-26T05:11:31.760Z,17.80
2019-05-26T05:12:36.138Z,17.80
2019-05-26T05:13:40.707Z,17.79
2019-05-26T05:14:45.181Z,17.77
2019-05-26T05:15:49.755Z,17.80
2019-05-26T05:16:54.261Z,17.82
2019-05-26T05:17:58.900Z,17.85
2019-05-26T05:19:03.424Z,17.86
2019-05-26T05:20:08.044Z,17.88
2019-05-26T05:21:12.462Z,17.81
2019-05-26T05:22:17.058Z,17.82
2019-05-26T05:23:21.521Z,17.81
2019-05-26T05:24:26.159Z,17.82
2019-05-26T05:25:30.575Z,17.87
2019-05-26T05:26:35.174Z,17.87
2019-05-26T05:27:39.650Z,17.89
2019-05-26T05:28:44.222Z,17.93
2019-05-26T05:29:48.674Z,17.99
2019-05-26T05:30:53.364Z,18.02
2019-05-26T05:31:57.773Z,18.05
2019-05-26T05:33:02.561Z,18.06
2019-05-26T05:34:07.025Z,18.03
2019-05-26T05:35:11.774Z,18.06
2019-05-26T05:36:16.158Z,18.05
2019-05-26T05:37:20.760Z,18.09
2019-05-26T05:38:25.187Z,18.12
2019-05-26T05:39:29.928Z,18.12
2019-05-26T05:40:34.311Z,18.13
2019-05-26T05:41:38.918Z,18.12
2019-05-26T05:42:43.326Z,18.14
2019-05-26T05:43:48.083Z,18.18
2019-05-26T05:44:52.468Z,18.21
2019-05-26T05:45:57.047Z,18.17
2019-05-26T05:47:02.468Z,18.21
2019-05-26T05:48:07.163Z,18.25
2019-05-26T05:49:12.691Z,18.28
2019-05-26T05:50:17.614Z,18.32
2019-05-26T05:51:23.138Z,18.34
2019-05-26T05:52:27.826Z,18.37
2019-05-26T05:53:32.420Z,18.38
2019-05-26T05:54:37.163Z,18.42
2019-05-26T05:55:41.588Z,18.43
2019-05-26T05:56:46.381Z,18.45
2019-05-26T05:57:51.242Z,18.49
2019-05-26T05:58:55.867Z,18.51
2019-05-26T06:00:00.638Z,18.58
2019-05-26T06:01:05.223Z,18.54
2019-05-26T06:02:09.710Z,18.57
2019-05-26T06:03:14.418Z,18.58
2019-05-26T06:04:18.817Z,18.63
2019-05-26T06:05:23.481Z,18.64
2019-05-26T06:06:27.895Z,18.70
2019-05-26T06:07:32.522Z,18.73
2019-05-26T06:08:36.992Z,18.74
2019-05-26T06:09:41.631Z,18.69
2019-05-26T06:10:46.166Z,18.69
2019-05-26T06:11:54.430Z,18.72
2019-05-26T06:13:04.700Z,18.78
2019-05-26T06:14:09.263Z,18.83
2019-05-26T06:15:15.607Z,18.87
2019-05-26T06:16:20.057Z,18.88
2019-05-26T06:17:24.570Z,19.01
2019-05-26T06:18:29.275Z,19.01
2019-05-26T06:19:33.672Z,19.07
2019-05-26T06:20:38.340Z,19.13
2019-05-26T06:21:42.826Z,19.18
2019-05-26T06:22:47.472Z,19.19
2019-05-26T06:23:51.991Z,19.23
2019-05-26T06:24:56.559Z,19.26
2019-05-26T06:26:01.399Z,19.23
2019-05-26T06:27:06.062Z,19.29
2019-05-26T06:28:10.720Z,19.34
2019-05-26T06:29:15.407Z,19.39
2019-05-26T06:30:19.936Z,19.42
2019-05-26T06:31:24.786Z,19.46
2019-05-26T06:32:30.061Z,19.49
2019-05-26T06:33:34.722Z,19.49
2019-05-26T06:34:39.146Z,19.53
2019-05-26T06:35:43.741Z,19.57
2019-05-26T06:36:48.623Z,19.61
2019-05-26T06:37:53.367Z,19.63
2019-05-26T06:38:57.692Z,19.64
2019-05-26T06:40:02.472Z,19.67
2019-05-26T06:41:06.851Z,19.72
2019-05-26T06:42:13.075Z,19.77
2019-05-26T06:43:17.896Z,19.80
2019-05-26T06:44:22.481Z,19.84
2019-05-26T06:45:26.999Z,19.86
2019-05-26T06:46:31.757Z,19.88
2019-05-26T06:47:36.217Z,19.90
2019-05-26T06:48:40.790Z,19.91
2019-05-26T06:49:45.433Z,19.91
2019-05-26T06:50:50.070Z,19.95
2019-05-26T06:51:54.445Z,19.98
2019-05-26T06:52:59.005Z,20.02
2019-05-26T06:54:03.434Z,20.06
2019-05-26T06:55:08.023Z,20.04
2019-05-26T06:56:12.400Z,20.04
2019-05-26T06:57:17.181Z,20.05
2019-05-26T06:58:21.533Z,20.08
2019-05-26T06:59:26.097Z,20.13
2019-05-26T07:00:30.770Z,20.18
2019-05-26T07:01:35.330Z,20.21
2019-05-26T07:02:39.901Z,20.24
2019-05-26T07:03:44.463Z,20.31
2019-05-26T07:04:48.840Z,20.37
2019-05-26T07:05:53.589Z,20.43
2019-05-26T07:06:57.969Z,20.40
2019-05-26T07:08:02.614Z,20.42
2019-05-26T07:09:07.413Z,20.51
2019-05-26T07:10:11.925Z,20.58
2019-05-26T07:11:16.434Z,20.61
2019-05-26T07:12:20.961Z,20.61
2019-05-26T07:13:25.482Z,20.65
2019-05-26T07:14:30.174Z,20.69
2019-05-26T07:15:34.584Z,20.80
2019-05-26T07:16:40.276Z,20.80
2019-05-26T07:17:44.726Z,20.86
2019-05-26T07:18:49.439Z,20.90
2019-05-26T07:19:53.868Z,20.95
2019-05-26T07:20:58.433Z,20.97
2019-05-26T07:22:04.433Z,20.96
2019-05-26T07:23:09.571Z,21.00
2019-05-26T07:24:14.655Z,21.05
2019-05-26T07:25:19.214Z,21.04
2019-05-26T07:26:23.735Z,21.09
2019-05-26T07:27:28.346Z,21.15
2019-05-26T07:28:33.058Z,21.18
2019-05-26T07:29:37.711Z,21.19
2019-05-26T07:30:42.171Z,21.20
2019-05-26T07:31:46.808Z,21.23
2019-05-26T07:32:51.182Z,21.29
2019-05-26T07:33:55.748Z,21.31
2019-05-26T07:35:00.373Z,21.33
2019-05-26T07:36:05.098Z,21.34
2019-05-26T07:37:09.470Z,21.40
2019-05-26T07:38:14.096Z,21.48
2019-05-26T07:39:18.532Z,21.53
2019-05-26T07:40:23.138Z,21.59
2019-05-26T07:41:27.514Z,21.59
2019-05-26T07:42:32.102Z,21.63
2019-05-26T07:43:36.526Z,21.64
2019-05-26T07:44:41.374Z,21.68
2019-05-26T07:45:45.823Z,21.63
2019-05-26T07:46:50.864Z,21.73
2019-05-26T07:47:55.751Z,21.82
2019-05-26T07:49:00.413Z,21.75
2019-05-26T07:50:08.833Z,21.83
2019-05-26T07:51:13.466Z,21.87
2019-05-26T07:52:17.993Z,21.89
2019-05-26T07:53:22.685Z,21.95
2019-05-26T07:54:27.039Z,21.96
2019-05-26T07:55:31.782Z,21.97
2019-05-26T07:56:36.220Z,22.03
2019-05-26T07:57:40.790Z,22.09
2019-05-26T07:58:45.328Z,22.09
2019-05-26T07:59:49.977Z,22.10
2019-05-26T08:00:54.703Z,22.14
2019-05-26T08:01:59.339Z,22.10
2019-05-26T08:03:04.257Z,22.13
2019-05-26T08:04:08.887Z,21.98
2019-05-26T08:05:13.260Z,22.21
2019-05-26T08:06:17.879Z,22.26
2019-05-26T08:07:23.220Z,22.29
2019-05-26T08:08:27.953Z,22.30
2019-05-26T08:09:32.351Z,22.36
2019-05-26T08:10:37.023Z,22.37
2019-05-26T08:11:41.653Z,22.39
2019-05-26T08:12:46.234Z,22.43
2019-05-26T08:13:50.615Z,22.47
2019-05-26T08:14:55.251Z,22.57
2019-05-26T08:15:59.620Z,22.57
2019-05-26T08:17:05.939Z,22.63
2019-05-26T08:18:10.335Z,22.68
2019-05-26T08:19:15.006Z,22.69
2019-05-26T08:20:19.407Z,22.75
2019-05-26T08:21:24.057Z,22.75
2019-05-26T08:22:28.700Z,22.82
2019-05-26T08:23:33.332Z,22.87
2019-05-26T08:24:37.906Z,22.83
2019-05-26T08:25:42.842Z,22.81
2019-05-26T08:26:47.408Z,22.88
2019-05-26T08:27:52.389Z,22.92
2019-05-26T08:28:56.777Z,22.98
2019-05-26T08:30:01.485Z,23.04
2019-05-26T08:31:05.901Z,23.10
2019-05-26T08:32:10.444Z,23.10
2019-05-26T08:33:14.905Z,23.10
2019-05-26T08:34:19.550Z,23.15
2019-05-26T08:35:23.963Z,23.20
2019-05-26T08:36:28.615Z,23.27
2019-05-26T08:37:32.962Z,23.29
2019-05-26T08:38:38.915Z,23.33
2019-05-26T08:39:43.346Z,23.37
2019-05-26T08:40:49.161Z,23.36
2019-05-26T08:41:53.590Z,23.37
2019-05-26T08:42:58.360Z,23.40
2019-05-26T08:44:02.813Z,23.45
2019-05-26T08:45:07.441Z,23.51
2019-05-26T08:46:11.819Z,23.58
2019-05-26T08:47:16.528Z,23.63
2019-05-26T08:48:20.941Z,23.65
2019-05-26T08:49:26.577Z,23.65
2019-05-26T08:50:34.162Z,23.66
2019-05-26T08:51:37.318Z,23.66
2019-05-26T08:52:41.856Z,23.69
2019-05-26T08:53:46.444Z,23.77
2019-05-26T08:54:50.823Z,23.86
2019-05-26T08:55:55.379Z,23.88
2019-05-26T08:57:00.009Z,23.93
2019-05-26T08:58:06.116Z,23.98
2019-05-26T08:59:10.573Z,24.02
2019-05-26T09:00:16.761Z,24.11
2019-05-26T09:01:21.137Z,24.16
2019-05-26T09:02:25.790Z,24.20
2019-05-26T09:03:31.273Z,24.27
2019-05-26T09:04:35.848Z,24.29
2019-05-26T09:05:40.222Z,24.32
2019-05-26T09:06:44.777Z,24.41
2019-05-26T09:07:49.242Z,24.41
2019-05-26T09:08:53.879Z,24.45
2019-05-26T09:09:58.366Z,24.41
2019-05-26T09:11:02.942Z,24.45
2019-05-26T09:12:07.398Z,24.43
2019-05-26T09:13:11.958Z,24.38
2019-05-26T09:14:16.497Z,24.33
2019-05-26T09:15:21.132Z,24.35
2019-05-26T09:16:25.646Z,24.31
2019-05-26T09:17:30.389Z,24.39
2019-05-26T09:18:34.955Z,24.35
2019-05-26T09:19:39.705Z,24.40
2019-05-26T09:20:44.089Z,24.44
2019-05-26T09:21:48.713Z,24.48
2019-05-26T09:22:53.081Z,24.53
2019-05-26T09:23:57.640Z,24.44
2019-05-26T09:25:02.167Z,24.48
2019-05-26T09:26:06.869Z,24.42
2019-05-26T09:27:11.238Z,24.43
2019-05-26T09:28:16.758Z,24.44
2019-05-26T09:29:21.132Z,24.49
2019-05-26T09:30:25.809Z,24.42
2019-05-26T09:31:30.317Z,24.50
2019-05-26T09:32:34.942Z,24.56
2019-05-26T09:33:39.334Z,24.59
2019-05-26T09:34:43.894Z,24.57
2019-05-26T09:35:48.352Z,24.59
2019-05-26T09:36:52.937Z,24.62
2019-05-26T09:37:57.329Z,24.60
2019-05-26T09:39:01.884Z,24.46
2019-05-26T09:40:08.553Z,24.45
2019-05-26T09:41:13.365Z,24.32
2019-05-26T09:42:17.768Z,24.29
2019-05-26T09:43:22.336Z,24.33
2019-05-26T09:44:26.776Z,24.44
2019-05-26T09:45:31.385Z,24.47
2019-05-26T09:46:35.755Z,24.55
2019-05-26T09:47:40.409Z,24.60
2019-05-26T09:48:44.920Z,24.70
2019-05-26T09:49:49.614Z,24.79
2019-05-26T09:50:53.992Z,24.81
2019-05-26T09:51:58.612Z,24.81
2019-05-26T09:53:03.010Z,24.31
2019-05-26T09:54:07.589Z,24.24
2019-05-26T09:55:12.004Z,24.20
2019-05-26T09:56:16.633Z,24.31
2019-05-26T09:57:21.006Z,24.41
2019-05-26T09:58:25.564Z,24.44
2019-05-26T09:59:30.007Z,24.50
2019-05-26T10:00:34.600Z,24.56
2019-05-26T10:01:39.210Z,24.59
2019-05-26T10:02:43.830Z,24.63
2019-05-26T10:03:48.181Z,24.77
2019-05-26T10:04:52.825Z,24.82
2019-05-26T10:05:57.229Z,24.81
2019-05-26T10:07:01.884Z,24.85
2019-05-26T10:08:06.324Z,24.82
2019-05-26T10:09:10.948Z,24.74
2019-05-26T10:10:15.328Z,24.79
2019-05-26T10:11:19.880Z,24.80
2019-05-26T10:12:24.277Z,24.83
2019-05-26T10:13:31.875Z,24.85
2019-05-26T10:14:34.935Z,24.79
2019-05-26T10:15:39.488Z,24.74
2019-05-26T10:16:43.931Z,24.79
2019-05-26T10:17:48.512Z,24.71
2019-05-26T10:18:52.969Z,24.82
2019-05-26T10:19:57.521Z,24.94
2019-05-26T10:21:02.724Z,25.02
2019-05-26T10:22:07.316Z,25.07
2019-05-26T10:23:12.049Z,25.12
2019-05-26T10:24:16.612Z,25.18
2019-05-26T10:25:20.977Z,25.26
2019-05-26T10:26:25.530Z,25.26
2019-05-26T10:27:30.278Z,25.30
2019-05-26T10:28:34.842Z,25.35
2019-05-26T10:29:39.249Z,25.36
2019-05-26T10:30:43.881Z,25.32
2019-05-26T10:31:48.386Z,25.34
2019-05-26T10:32:53.693Z,25.30
2019-05-26T10:33:58.145Z,25.35
2019-05-26T10:35:02.748Z,25.43
2019-05-26T10:36:08.318Z,25.31
2019-05-26T10:37:12.865Z,25.36
2019-05-26T10:38:17.340Z,25.42
2019-05-26T10:39:21.889Z,25.39
2019-05-26T10:40:26.280Z,25.43
2019-05-26T10:41:30.985Z,25.44
2019-05-26T10:42:35.377Z,25.42
2019-05-26T10:43:47.239Z,25.43
2019-05-26T10:44:46.141Z,25.36
2019-05-26T10:45:50.773Z,25.45
2019-05-26T10:46:55.209Z,25.51
2019-05-26T10:47:59.785Z,25.57
2019-05-26T10:49:04.374Z,25.61
2019-05-26T10:50:09.437Z,25.62
2019-05-26T10:51:13.927Z,25.56
2019-05-26T10:52:18.466Z,25.56
2019-05-26T10:53:23.056Z,25.58
2019-05-26T10:54:27.682Z,25.64
2019-05-26T10:55:32.096Z,25.61
2019-05-26T10:56:36.653Z,25.53
2019-05-26T10:57:41.121Z,25.57
2019-05-26T10:58:45.747Z,25.67
2019-05-26T10:59:50.121Z,25.75
2019-05-26T11:00:54.700Z,25.81
2019-05-26T11:01:59.140Z,25.81
2019-05-26T11:03:03.705Z,25.83
2019-05-26T11:04:08.142Z,25.83
2019-05-26T11:05:12.782Z,25.83
2019-05-26T11:06:18.632Z,25.85
2019-05-26T11:07:26.651Z,25.75
2019-05-26T11:08:29.434Z,25.75
2019-05-26T11:09:34.040Z,25.68
2019-05-26T11:10:38.426Z,25.64
2019-05-26T11:11:43.092Z,25.66
2019-05-26T11:12:47.508Z,25.73
2019-05-26T11:14:02.590Z,25.79
2019-05-26T11:14:58.230Z,25.78
2019-05-26T11:16:02.782Z,25.79
2019-05-26T11:17:07.197Z,25.80
2019-05-26T11:18:12.237Z,25.83
2019-05-26T11:19:16.680Z,25.83
2019-05-26T11:20:21.376Z,25.63
2019-05-26T11:21:25.807Z,25.63
2019-05-26T11:22:30.365Z,25.57
2019-05-26T11:23:34.956Z,25.63
2019-05-26T11:24:39.652Z,25.71
2019-05-26T11:25:44.314Z,25.67
2019-05-26T11:26:49.269Z,25.76
2019-05-26T11:27:53.801Z,25.86
2019-05-26T11:28:58.440Z,25.92
2019-05-26T11:30:02.832Z,25.86
2019-05-26T11:31:07.461Z,26.06
2019-05-26T11:32:11.829Z,26.06
2019-05-26T11:33:16.454Z,26.08
2019-05-26T11:34:20.849Z,26.08
2019-05-26T11:35:25.400Z,26.09
2019-05-26T11:36:29.776Z,26.15
2019-05-26T11:37:34.334Z,26.19
2019-05-26T11:38:38.709Z,26.19
2019-05-26T11:39:43.409Z,26.20
2019-05-26T11:40:48.063Z,26.20
2019-05-26T11:41:54.810Z,26.15
2019-05-26T11:42:58.707Z,26.20
2019-05-26T11:44:17.025Z,26.19
2019-05-26T11:45:09.417Z,26.18
2019-05-26T11:46:16.596Z,26.20
2019-05-26T11:47:20.160Z,26.26
2019-05-26T11:48:24.716Z,26.34
2019-05-26T11:49:29.080Z,26.39
2019-05-26T11:50:33.706Z,26.40
2019-05-26T11:51:38.103Z,26.35
2019-05-26T11:52:42.728Z,26.28
2019-05-26T11:53:47.101Z,26.31
2019-05-26T11:54:51.742Z,26.27
2019-05-26T11:55:56.375Z,26.30
2019-05-26T11:57:01.017Z,26.18
2019-05-26T11:58:05.516Z,26.20
2019-05-26T11:59:10.101Z,26.14
2019-05-26T12:00:16.007Z,26.14
2019-05-26T12:01:23.123Z,26.20
2019-05-26T12:02:26.812Z,26.24
2019-05-26T12:03:31.373Z,26.20
2019-05-26T12:04:35.745Z,26.16
2019-05-26T12:05:40.300Z,26.20
2019-05-26T12:06:44.798Z,26.26
2019-05-26T12:07:49.374Z,26.18
2019-05-26T12:08:53.749Z,26.13
2019-05-26T12:09:59.505Z,26.00
2019-05-26T12:11:03.830Z,25.91
2019-05-26T12:12:08.384Z,25.96
2019-05-26T12:13:12.950Z,26.06
2019-05-26T12:14:33.031Z,26.15
2019-05-26T12:15:23.849Z,26.20
2019-05-26T12:16:29.027Z,26.26
2019-05-26T12:17:33.568Z,26.32
2019-05-26T12:18:38.121Z,26.35
2019-05-26T12:19:42.503Z,26.40
2019-05-26T12:20:47.396Z,26.40
2019-05-26T12:21:51.791Z,26.45
2019-05-26T12:22:56.630Z,26.48
2019-05-26T12:24:01.003Z,26.51
2019-05-26T12:25:08.373Z,26.50
2019-05-26T12:26:12.913Z,26.52
2019-05-26T12:27:17.577Z,26.51
2019-05-26T12:28:22.008Z,26.50
2019-05-26T12:29:26.566Z,26.53
2019-05-26T12:30:32.010Z,26.58
2019-05-26T12:31:36.665Z,26.64
2019-05-26T12:32:41.044Z,26.61
2019-05-26T12:33:45.825Z,26.76
2019-05-26T12:34:50.321Z,26.83
2019-05-26T12:35:54.965Z,26.85
2019-05-26T12:36:59.438Z,26.92
2019-05-26T12:38:04.872Z,26.97
2019-05-26T12:39:09.795Z,27.05
2019-05-26T12:40:14.408Z,27.10
2019-05-26T12:41:19.926Z,27.09
2019-05-26T12:42:24.556Z,26.99
2019-05-26T12:43:28.920Z,26.97
2019-05-26T12:44:48.250Z,26.91
2019-05-26T12:45:39.632Z,26.94
2019-05-26T12:46:44.264Z,26.93
2019-05-26T12:47:48.739Z,26.95
2019-05-26T12:48:53.280Z,26.83
2019-05-26T12:49:57.651Z,26.78
2019-05-26T12:51:02.276Z,26.81
2019-05-26T12:52:06.716Z,26.83
2019-05-26T12:53:11.349Z,26.78
2019-05-26T12:54:15.890Z,26.74
2019-05-26T12:55:20.405Z,26.73
2019-05-26T12:56:24.796Z,26.78
2019-05-26T12:57:29.353Z,26.88
2019-05-26T12:58:33.724Z,26.93
2019-05-26T12:59:38.312Z,26.95
2019-05-26T13:00:48.963Z,26.92
2019-05-26T13:01:48.923Z,26.94
2019-05-26T13:02:53.349Z,27.00
2019-05-26T13:03:57.884Z,27.07
2019-05-26T13:05:02.295Z,27.09
2019-05-26T13:06:07.827Z,27.09
2019-05-26T13:07:13.197Z,27.14
2019-05-26T13:08:17.885Z,27.04
2019-05-26T13:09:22.359Z,27.07
2019-05-26T13:10:27.040Z,27.11
2019-05-26T13:11:31.584Z,27.14
2019-05-26T13:12:36.140Z,27.15
2019-05-26T13:13:40.514Z,27.17
2019-05-26T13:14:45.103Z,27.18
2019-05-26T13:15:49.536Z,27.22
2019-05-26T13:16:54.116Z,27.14
2019-05-26T13:17:58.512Z,27.13
2019-05-26T13:19:03.147Z,27.12
2019-05-26T13:20:07.941Z,26.94
2019-05-26T13:21:12.520Z,26.97
2019-05-26T13:22:16.915Z,26.97
2019-05-26T13:23:21.520Z,26.95
2019-05-26T13:24:25.911Z,26.96
2019-05-26T13:25:30.602Z,26.95
2019-05-26T13:26:34.967Z,26.86
2019-05-26T13:27:39.612Z,26.86
2019-05-26T13:28:43.985Z,26.90
2019-05-26T13:29:48.592Z,26.93
2019-05-26T13:30:52.952Z,26.96
2019-05-26T13:31:57.577Z,26.98
2019-05-26T13:33:01.963Z,26.93
2019-05-26T13:34:06.610Z,26.94
2019-05-26T13:35:10.994Z,26.92
2019-05-26T13:36:15.654Z,26.88
2019-05-26T13:37:20.137Z,26.89
2019-05-26T13:38:24.795Z,26.94
2019-05-26T13:39:29.473Z,27.03
2019-05-26T13:40:34.029Z,27.09
2019-05-26T13:41:38.415Z,27.13
2019-05-26T13:42:43.089Z,27.13
2019-05-26T13:43:47.461Z,27.15
2019-05-26T13:44:52.108Z,27.13
2019-05-26T13:45:56.482Z,27.16
2019-05-26T13:47:01.035Z,27.20
2019-05-26T13:48:05.401Z,27.25
2019-05-26T13:49:09.955Z,27.27
2019-05-26T13:50:14.450Z,27.31
2019-05-26T13:51:19.014Z,27.28
2019-05-26T13:52:23.449Z,27.27
2019-05-26T13:53:28.025Z,27.03